Time;durP1;ratioP1;P1;durP2;ratioP2;P2;SDS_P1;SDS_P2;PMS_P1;PMS_P2;Temp;Humidity;BMP_temperature;BMP_pressure;BME280_temperature;BME280_humidity;BME280_pressure;Samples;Min_cycle;Max_cycle;Signal;HPM_P1;HPM_P2
2023/12/19 00:01:19;;;;;;;20.95;10.68;;;;;;;;;;4979425;28;20038;-64
2023/12/19 00:03:44;;;;;;;18.88;10.90;;;;;;;;;;4978903;28;20892;-64
2023/12/19 00:06:09;;;;;;;20.30;11.20;;;;;;;;;;4972603;28;20973;-64
2023/12/19 00:08:35;;;;;;;18.13;11.23;;;;;;;;;;4985972;28;21173;-64
2023/12/19 00:11:00;;;;;;;18.00;11.13;;;;;;;;;;4988449;28;20132;-64
2023/12/19 00:13:26;;;;;;;20.80;11.20;;;;;;;;;;4983446;28;20034;-64
2023/12/19 00:15:51;;;;;;;18.85;11.05;;;;;;;;;;4985942;28;20029;-65
2023/12/19 00:18:16;;;;;;;22.75;11.15;;;;;;;;;;4986071;28;20494;-65
2023/12/19 00:20:41;;;;;;;23.40;11.32;;;;;;;;;;4977770;28;20045;-65
2023/12/19 00:23:07;;;;;;;26.77;12.05;;;;;;;;;;4984955;28;20025;-65
2023/12/19 00:25:32;;;;;;;26.33;11.70;;;;;;;;;;4976547;28;20061;-65
2023/12/19 00:27:58;;;;;;;24.15;11.35;;;;;;;;;;4976615;28;20236;-65
2023/12/19 00:30:24;;;;;;;20.60;10.93;;;;;;;;;;4975436;28;20036;-64
2023/12/19 00:32:49;;;;;;;21.50;10.75;;;;;;;;;;4975531;28;21079;-64
2023/12/19 00:35:14;;;;;;;25.02;11.80;;;;;;;;;;4975098;28;20261;-64
2023/12/19 00:37:40;;;;;;;25.30;12.27;;;;;;;;;;4974773;28;20018;-64
2023/12/19 00:40:05;;;;;;;24.58;11.57;;;;;;;;;;4974520;28;20032;-64
2023/12/19 00:42:31;;;;;;;27.73;12.48;;;;;;;;;;4985107;28;20029;-64
2023/12/19 00:44:56;;;;;;;25.60;13.60;;;;;;;;;;4979364;28;20906;-64
2023/12/19 00:47:21;;;;;;;26.23;12.85;;;;;;;;;;4979476;28;20032;-64
2023/12/19 00:49:46;;;;;;;27.40;12.55;;;;;;;;;;4981513;28;20030;-64
2023/12/19 00:52:12;;;;;;;29.40;13.43;;;;;;;;;;4982891;28;20853;-65
2023/12/19 00:54:37;;;;;;;31.50;14.13;;;;;;;;;;4986713;28;20139;-65
2023/12/19 00:57:03;;;;;;;25.75;13.57;;;;;;;;;;4980224;28;20018;-65
2023/12/19 00:59:28;;;;;;;29.30;13.45;;;;;;;;;;4985544;28;20158;-65
2023/12/19 01:01:53;;;;;;;24.17;13.02;;;;;;;;;;4979865;28;20021;-65
2023/12/19 01:04:19;;;;;;;27.58;14.05;;;;;;;;;;4986140;28;20901;-64
2023/12/19 01:06:45;;;;;;;25.92;13.40;;;;;;;;;;4976404;28;20042;-64
2023/12/19 01:09:10;;;;;;;24.58;13.38;;;;;;;;;;4976213;28;20793;-64
2023/12/19 01:11:35;;;;;;;27.88;12.90;;;;;;;;;;4978328;28;20088;-64
2023/12/19 01:14:00;;;;;;;24.58;13.57;;;;;;;;;;4979954;28;20026;-65
2023/12/19 01:16:26;;;;;;;26.50;12.55;;;;;;;;;;4982954;28;20026;-64
2023/12/19 01:18:51;;;;;;;28.02;13.85;;;;;;;;;;4984733;28;20939;-65
2023/12/19 01:21:16;;;;;;;26.95;13.88;;;;;;;;;;4976847;28;20132;-65
2023/12/19 01:23:41;;;;;;;27.97;13.67;;;;;;;;;;4958335;28;20059;-65
2023/12/19 01:26:06;;;;;;;23.25;12.95;;;;;;;;;;4978129;28;20309;-65
2023/12/19 01:28:32;;;;;;;27.88;13.70;;;;;;;;;;4981817;28;20883;-65
2023/12/19 01:30:57;;;;;;;30.27;13.45;;;;;;;;;;4981240;28;20839;-65
2023/12/19 01:33:22;;;;;;;25.70;13.75;;;;;;;;;;4988591;28;20474;-64
2023/12/19 01:35:47;;;;;;;30.85;13.57;;;;;;;;;;4977985;28;20022;-64
2023/12/19 01:38:14;;;;;;;24.90;13.05;;;;;;;;;;4978865;28;20026;-64
2023/12/19 01:40:39;;;;;;;28.65;13.57;;;;;;;;;;4978563;28;20827;-64
2023/12/19 01:43:14;;;;;;;29.15;13.45;;;;;;;;;;4981070;28;20025;-64
2023/12/19 01:45:40;;;;;;;30.08;14.02;;;;;;;;;;4982312;28;20045;-64
2023/12/19 01:48:05;;;;;;;26.67;15.13;;;;;;;;;;4988701;28;20030;-64
2023/12/19 01:50:30;;;;;;;26.00;13.25;;;;;;;;;;4982232;28;20175;-64
2023/12/19 01:52:57;;;;;;;32.60;13.93;;;;;;;;;;4986124;28;20032;-64
2023/12/19 01:55:23;;;;;;;27.17;14.27;;;;;;;;;;4978861;28;20873;-64
2023/12/19 01:57:49;;;;;;;26.50;14.10;;;;;;;;;;4980333;28;20025;-65
2023/12/19 02:00:14;;;;;;;27.25;13.25;;;;;;;;;;4977925;28;20801;-64
2023/12/19 02:02:43;;;;;;;29.27;14.88;;;;;;;;;;4984464;28;20144;-64
2023/12/19 02:05:09;;;;;;;25.52;13.20;;;;;;;;;;4976537;28;20088;-64
2023/12/19 02:07:34;;;;;;;29.63;13.60;;;;;;;;;;4971188;28;20950;-65
2023/12/19 02:10:00;;;;;;;25.65;12.98;;;;;;;;;;4979932;28;20049;-64
2023/12/19 02:12:25;;;;;;;34.58;14.68;;;;;;;;;;4986173;28;20033;-64
2023/12/19 02:14:50;;;;;;;27.77;13.65;;;;;;;;;;4975241;28;20829;-64
2023/12/19 02:17:17;;;;;;;26.55;12.63;;;;;;;;;;4980231;28;20026;-64
2023/12/19 02:19:43;;;;;;;28.00;13.05;;;;;;;;;;4975536;28;20021;-64
2023/12/19 02:22:08;;;;;;;28.60;13.77;;;;;;;;;;4977376;28;20362;-65
2023/12/19 02:24:33;;;;;;;24.38;13.38;;;;;;;;;;4978405;28;20029;-64
2023/12/19 02:26:58;;;;;;;24.92;12.45;;;;;;;;;;4980855;28;20065;-65
2023/12/19 02:29:23;;;;;;;24.92;12.57;;;;;;;;;;4978552;28;20136;-64
2023/12/19 02:31:49;;;;;;;24.58;13.25;;;;;;;;;;4984869;28;20022;-65
2023/12/19 02:34:14;;;;;;;24.10;11.60;;;;;;;;;;4983558;28;20056;-65
2023/12/19 02:36:39;;;;;;;26.25;12.75;;;;;;;;;;4979885;28;20269;-65
2023/12/19 02:39:04;;;;;;;30.13;14.95;;;;;;;;;;4981735;28;20077;-64
2023/12/19 02:41:29;;;;;;;24.25;12.52;;;;;;;;;;4980785;28;20975;-65
2023/12/19 02:43:55;;;;;;;24.93;12.63;;;;;;;;;;4977985;28;20874;-65
2023/12/19 02:46:20;;;;;;;32.03;13.73;;;;;;;;;;4986067;28;21223;-65
2023/12/19 02:48:45;;;;;;;20.48;12.60;;;;;;;;;;4977535;28;21201;-65
2023/12/19 02:51:10;;;;;;;25.45;12.90;;;;;;;;;;4977974;28;20448;-65
2023/12/19 02:53:36;;;;;;;22.73;11.38;;;;;;;;;;4986736;28;20502;-65
2023/12/19 02:56:01;;;;;;;23.00;12.30;;;;;;;;;;4984185;28;20093;-65
2023/12/19 02:58:27;;;;;;;23.55;12.13;;;;;;;;;;4978195;28;20072;-64
2023/12/19 03:00:52;;;;;;;23.83;11.93;;;;;;;;;;4979943;28;20069;-64
2023/12/19 03:03:17;;;;;;;27.83;12.68;;;;;;;;;;4978425;28;20111;-65
2023/12/19 03:05:42;;;;;;;22.88;12.23;;;;;;;;;;4977863;28;20040;-64
2023/12/19 03:08:08;;;;;;;22.83;11.85;;;;;;;;;;4986050;28;20809;-66
2023/12/19 03:10:33;;;;;;;20.67;11.18;;;;;;;;;;4979209;28;20033;-67
2023/12/19 03:12:58;;;;;;;20.02;11.40;;;;;;;;;;4979195;28;20141;-66
2023/12/19 03:15:24;;;;;;;23.50;11.17;;;;;;;;;;4982638;28;20040;-64
2023/12/19 03:17:49;;;;;;;20.23;10.63;;;;;;;;;;4984588;28;20625;-66
2023/12/19 03:20:15;;;;;;;20.27;11.10;;;;;;;;;;4979951;28;20550;-66
2023/12/19 03:22:40;;;;;;;16.85;9.90;;;;;;;;;;4975115;28;20878;-65
2023/12/19 03:25:05;;;;;;;23.20;10.93;;;;;;;;;;4978082;28;20021;-65
2023/12/19 03:27:31;;;;;;;20.23;11.27;;;;;;;;;;4979197;28;20079;-66
2023/12/19 03:29:57;;;;;;;20.58;10.82;;;;;;;;;;4974717;28;20029;-65
2023/12/19 03:32:22;;;;;;;19.42;10.15;;;;;;;;;;4980915;28;20034;-66
2023/12/19 03:34:47;;;;;;;19.77;9.90;;;;;;;;;;4986349;28;20025;-66
2023/12/19 03:37:12;;;;;;;21.95;10.75;;;;;;;;;;4976444;28;20030;-66
2023/12/19 03:39:38;;;;;;;22.73;9.70;;;;;;;;;;4983078;28;20040;-66
2023/12/19 03:42:03;;;;;;;18.48;10.20;;;;;;;;;;4988508;28;20299;-66
2023/12/19 03:44:29;;;;;;;17.83;10.02;;;;;;;;;;4977253;28;20021;-66
2023/12/19 03:46:54;;;;;;;22.02;9.90;;;;;;;;;;4980775;28;20083;-65
2023/12/19 03:49:19;;;;;;;17.08;9.25;;;;;;;;;;4979865;28;20165;-66
2023/12/19 03:51:45;;;;;;;22.42;11.05;;;;;;;;;;4980259;28;20025;-66
2023/12/19 03:54:10;;;;;;;21.60;10.82;;;;;;;;;;4981434;28;20044;-66
2023/12/19 03:56:35;;;;;;;20.92;11.50;;;;;;;;;;4978285;28;20139;-66
2023/12/19 03:59:01;;;;;;;29.02;10.95;;;;;;;;;;4979283;28;20036;-65
2023/12/19 04:01:26;;;;;;;17.65;10.75;;;;;;;;;;4977878;28;20032;-66
2023/12/19 04:03:51;;;;;;;22.35;10.73;;;;;;;;;;4975693;28;20022;-66
2023/12/19 04:06:16;;;;;;;16.60;10.02;;;;;;;;;;4974252;28;20135;-65
2023/12/19 04:08:41;;;;;;;19.33;11.57;;;;;;;;;;4976345;28;20033;-65
2023/12/19 04:11:07;;;;;;;18.70;10.23;;;;;;;;;;4976646;28;20879;-65
2023/12/19 04:13:32;;;;;;;21.55;10.68;;;;;;;;;;4976490;28;21251;-65
2023/12/19 04:15:57;;;;;;;17.88;9.43;;;;;;;;;;4987396;28;20060;-65
2023/12/19 04:18:22;;;;;;;18.87;9.87;;;;;;;;;;4984931;28;20028;-64
2023/12/19 04:20:48;;;;;;;16.83;8.98;;;;;;;;;;4974033;28;20280;-65
2023/12/19 04:23:13;;;;;;;16.40;9.32;;;;;;;;;;4985225;28;20963;-65
2023/12/19 04:25:38;;;;;;;16.67;9.35;;;;;;;;;;4976124;28;20940;-65
2023/12/19 04:28:03;;;;;;;16.27;8.70;;;;;;;;;;4980207;28;20021;-65
2023/12/19 04:30:29;;;;;;;15.32;9.10;;;;;;;;;;4979391;28;20853;-65
2023/12/19 04:32:54;;;;;;;18.83;9.10;;;;;;;;;;4977005;28;20029;-65
2023/12/19 04:35:19;;;;;;;15.90;8.80;;;;;;;;;;4977194;28;20288;-65
2023/12/19 04:37:44;;;;;;;15.68;7.80;;;;;;;;;;4988644;28;20021;-66
2023/12/19 04:40:10;;;;;;;17.85;9.90;;;;;;;;;;4980005;28;20061;-66
2023/12/19 04:42:35;;;;;;;14.93;8.77;;;;;;;;;;4986425;28;20799;-65
2023/12/19 04:45:00;;;;;;;20.17;10.35;;;;;;;;;;4968237;28;20021;-66
2023/12/19 04:47:26;;;;;;;22.45;9.88;;;;;;;;;;4984118;28;20024;-66
2023/12/19 04:49:51;;;;;;;20.85;9.52;;;;;;;;;;4981029;28;20029;-65
2023/12/19 04:52:16;;;;;;;18.77;9.93;;;;;;;;;;4981080;28;20036;-66
2023/12/19 04:54:41;;;;;;;15.70;9.85;;;;;;;;;;4974944;28;20753;-66
2023/12/19 04:57:07;;;;;;;17.70;9.57;;;;;;;;;;4985517;28;20017;-65
2023/12/19 04:59:32;;;;;;;17.77;10.07;;;;;;;;;;4987186;28;20136;-66
2023/12/19 05:01:57;;;;;;;19.05;9.45;;;;;;;;;;4978267;28;20152;-66
2023/12/19 05:04:22;;;;;;;17.55;9.75;;;;;;;;;;4985657;28;20873;-66
2023/12/19 05:06:48;;;;;;;19.42;9.93;;;;;;;;;;4984563;28;20053;-66
2023/12/19 05:09:13;;;;;;;17.17;9.97;;;;;;;;;;4977660;28;20017;-64
2023/12/19 05:11:41;;;;;;;16.13;10.23;;;;;;;;;;4979500;28;20276;-65
2023/12/19 05:14:06;;;;;;;18.83;10.25;;;;;;;;;;4978918;28;20379;-64
2023/12/19 05:16:31;;;;;;;16.48;9.38;;;;;;;;;;4976108;28;20022;-66
2023/12/19 05:18:57;;;;;;;16.20;9.65;;;;;;;;;;4975201;28;20030;-66
2023/12/19 05:21:22;;;;;;;18.05;10.35;;;;;;;;;;4981754;28;20868;-66
2023/12/19 05:23:47;;;;;;;18.40;10.73;;;;;;;;;;4989469;28;20068;-66
2023/12/19 05:26:13;;;;;;;16.52;9.70;;;;;;;;;;4979649;28;20060;-66
2023/12/19 05:28:38;;;;;;;18.88;10.10;;;;;;;;;;4981557;28;20033;-66
2023/12/19 05:31:04;;;;;;;13.15;9.15;;;;;;;;;;4975487;28;20037;-66
2023/12/19 05:33:30;;;;;;;18.50;9.57;;;;;;;;;;4986758;28;20890;-66
2023/12/19 05:35:55;;;;;;;16.67;9.38;;;;;;;;;;4976375;28;20018;-66
2023/12/19 05:38:21;;;;;;;20.25;9.45;;;;;;;;;;4976550;28;20041;-65
2023/12/19 05:40:46;;;;;;;18.08;9.20;;;;;;;;;;4987425;28;20021;-65
2023/12/19 05:43:14;;;;;;;16.30;9.85;;;;;;;;;;4975851;28;20957;-66
2023/12/19 05:45:40;;;;;;;16.58;9.25;;;;;;;;;;4986245;28;20878;-66
2023/12/19 05:48:05;;;;;;;20.60;10.27;;;;;;;;;;4975981;28;20022;-66
2023/12/19 05:50:31;;;;;;;15.10;8.98;;;;;;;;;;4975972;28;20021;-66
2023/12/19 05:52:56;;;;;;;18.90;9.93;;;;;;;;;;4976490;28;20023;-65
2023/12/19 05:55:22;;;;;;;17.67;10.00;;;;;;;;;;4979137;28;20085;-65
2023/12/19 05:57:47;;;;;;;16.92;9.95;;;;;;;;;;4975826;28;20923;-66
2023/12/19 06:00:13;;;;;;;18.90;9.70;;;;;;;;;;4977496;28;20018;-65
2023/12/19 06:02:38;;;;;;;22.90;10.95;;;;;;;;;;4975914;28;20088;-65
2023/12/19 06:05:07;;;;;;;15.63;9.57;;;;;;;;;;4973980;28;20793;-66
2023/12/19 06:07:36;;;;;;;18.13;10.52;;;;;;;;;;4973744;28;20276;-65
2023/12/19 06:10:02;;;;;;;15.18;10.13;;;;;;;;;;4975951;28;20021;-65
2023/12/19 06:12:27;;;;;;;17.92;10.15;;;;;;;;;;4975666;28;20949;-66
2023/12/19 06:14:52;;;;;;;18.47;10.23;;;;;;;;;;4976693;28;20053;-66
2023/12/19 06:17:17;;;;;;;19.20;10.03;;;;;;;;;;4972790;28;20328;-65
2023/12/19 06:19:42;;;;;;;21.73;11.25;;;;;;;;;;4973722;28;20365;-65
2023/12/19 06:22:10;;;;;;;18.33;9.07;;;;;;;;;;4973113;28;20824;-65
2023/12/19 06:24:35;;;;;;;18.73;9.55;;;;;;;;;;4973173;28;20094;-64
2023/12/19 06:27:00;;;;;;;14.85;10.13;;;;;;;;;;4977410;28;21006;-65
2023/12/19 06:29:26;;;;;;;19.23;10.73;;;;;;;;;;4972866;28;20914;-66
2023/12/19 06:31:51;;;;;;;15.65;9.90;;;;;;;;;;4978802;28;20116;-65
2023/12/19 06:34:17;;;;;;;16.30;9.23;;;;;;;;;;4972560;28;20838;-65
2023/12/19 06:36:42;;;;;;;15.55;9.60;;;;;;;;;;4973191;28;20076;-65
2023/12/19 06:39:08;;;;;;;15.07;8.52;;;;;;;;;;4973215;28;20153;-66
2023/12/19 06:41:33;;;;;;;13.68;9.02;;;;;;;;;;4977850;28;20849;-65
2023/12/19 06:43:59;;;;;;;14.13;8.57;;;;;;;;;;4973865;28;20040;-66
2023/12/19 06:46:24;;;;;;;16.05;8.63;;;;;;;;;;4973408;28;20877;-65
2023/12/19 06:48:49;;;;;;;15.73;8.82;;;;;;;;;;4973391;28;20030;-65
2023/12/19 06:51:21;;;;;;;15.15;9.00;;;;;;;;;;4973481;28;20903;-65
2023/12/19 06:53:46;;;;;;;16.50;8.27;;;;;;;;;;4983348;28;20030;-64
2023/12/19 06:56:12;;;;;;;11.90;8.13;;;;;;;;;;4973561;28;20887;-65
2023/12/19 06:58:37;;;;;;;14.70;8.13;;;;;;;;;;4984055;28;20638;-67
2023/12/19 07:01:02;;;;;;;13.93;7.95;;;;;;;;;;4998305;28;20774;-65
2023/12/19 07:03:27;;;;;;;12.27;8.32;;;;;;;;;;5001807;28;20089;-65
2023/12/19 07:05:53;;;;;;;13.45;8.00;;;;;;;;;;4998085;28;20033;-65
2023/12/19 07:08:18;;;;;;;12.20;7.75;;;;;;;;;;5004830;28;20017;-65
2023/12/19 07:10:44;;;;;;;12.95;7.30;;;;;;;;;;5005211;28;20033;-65
2023/12/19 07:13:09;;;;;;;12.35;7.10;;;;;;;;;;5001661;28;20026;-66
2023/12/19 07:15:34;;;;;;;11.32;7.97;;;;;;;;;;5011586;28;20104;-65
2023/12/19 07:18:00;;;;;;;12.50;7.15;;;;;;;;;;5001950;28;20033;-65
2023/12/19 07:20:25;;;;;;;13.15;8.35;;;;;;;;;;5010024;28;20088;-66
2023/12/19 07:22:50;;;;;;;10.75;6.57;;;;;;;;;;5008377;28;20103;-64
2023/12/19 07:25:15;;;;;;;16.75;7.40;;;;;;;;;;5004426;28;20032;-64
2023/12/19 07:27:41;;;;;;;11.30;7.43;;;;;;;;;;5002766;28;20034;-64
2023/12/19 07:30:06;;;;;;;11.95;5.88;;;;;;;;;;5007070;28;20021;-66
2023/12/19 07:32:32;;;;;;;13.32;6.57;;;;;;;;;;5003607;28;20495;-64
2023/12/19 07:34:59;;;;;;;11.77;6.83;;;;;;;;;;5009293;28;20030;-64
2023/12/19 07:37:24;;;;;;;10.30;6.35;;;;;;;;;;5004402;28;20392;-66
2023/12/19 07:39:50;;;;;;;10.97;6.93;;;;;;;;;;5006389;28;20472;-65
2023/12/19 07:42:17;;;;;;;11.32;6.18;;;;;;;;;;5010611;28;20288;-65
2023/12/19 07:44:42;;;;;;;9.50;5.40;;;;;;;;;;4992664;28;20044;-65
2023/12/19 07:47:08;;;;;;;9.48;5.28;;;;;;;;;;5005358;28;20025;-66
2023/12/19 07:49:33;;;;;;;8.80;5.87;;;;;;;;;;5004925;28;20022;-65
2023/12/19 07:51:58;;;;;;;8.30;5.10;;;;;;;;;;5006717;28;20292;-65
2023/12/19 07:54:23;;;;;;;9.20;6.05;;;;;;;;;;5014140;28;20280;-65
2023/12/19 07:56:48;;;;;;;8.63;5.57;;;;;;;;;;5007460;28;20034;-66
2023/12/19 07:59:14;;;;;;;8.38;5.72;;;;;;;;;;5007797;28;20145;-65
2023/12/19 08:01:40;;;;;;;9.03;5.83;;;;;;;;;;5014114;28;20123;-66
2023/12/19 08:04:06;;;;;;;9.63;5.45;;;;;;;;;;5009687;28;20288;-65
2023/12/19 08:06:31;;;;;;;10.40;5.43;;;;;;;;;;4994541;28;20040;-65
2023/12/19 08:08:57;;;;;;;9.73;5.63;;;;;;;;;;4986963;28;20017;-65
2023/12/19 08:11:22;;;;;;;11.05;5.50;;;;;;;;;;5015205;28;20549;-65
2023/12/19 08:13:50;;;;;;;7.32;5.03;;;;;;;;;;5006265;28;20863;-66
2023/12/19 08:16:15;;;;;;;7.78;5.50;;;;;;;;;;4997671;28;20105;-65
2023/12/19 08:18:40;;;;;;;9.65;4.68;;;;;;;;;;5008462;28;20022;-66
2023/12/19 08:21:06;;;;;;;8.40;5.25;;;;;;;;;;5009698;28;20018;-65
2023/12/19 08:23:31;;;;;;;9.95;4.90;;;;;;;;;;5006676;28;20065;-66
2023/12/19 08:25:56;;;;;;;8.18;4.65;;;;;;;;;;5008557;28;20028;-65
2023/12/19 08:28:22;;;;;;;7.60;4.40;;;;;;;;;;5000862;28;20034;-66
2023/12/19 08:30:47;;;;;;;10.10;5.13;;;;;;;;;;4998692;28;20029;-66
2023/12/19 08:33:13;;;;;;;7.57;4.07;;;;;;;;;;5004576;28;20149;-65
2023/12/19 08:35:38;;;;;;;9.18;4.53;;;;;;;;;;5003726;28;20467;-66
2023/12/19 08:38:03;;;;;;;8.88;5.03;;;;;;;;;;5000949;28;20018;-66
2023/12/19 08:40:28;;;;;;;11.23;4.73;;;;;;;;;;5008171;28;20105;-65
2023/12/19 08:42:53;;;;;;;9.20;4.30;;;;;;;;;;5010931;28;20646;-65
2023/12/19 08:45:20;;;;;;;8.20;4.20;;;;;;;;;;5011586;28;21058;-65
2023/12/19 08:47:46;;;;;;;8.68;4.28;;;;;;;;;;5016319;28;20025;-65
2023/12/19 08:50:12;;;;;;;9.68;4.85;;;;;;;;;;5018627;28;20502;-65
2023/12/19 08:52:38;;;;;;;6.30;3.97;;;;;;;;;;5012651;28;20022;-66
2023/12/19 08:55:06;;;;;;;10.15;4.00;;;;;;;;;;5017085;28;20092;-65
2023/12/19 08:57:32;;;;;;;6.35;3.38;;;;;;;;;;5018701;28;20367;-65
2023/12/19 08:59:57;;;;;;;6.55;2.83;;;;;;;;;;5019098;28;20029;-65
2023/12/19 09:02:23;;;;;;;6.57;3.73;;;;;;;;;;5010280;28;20038;-65
2023/12/19 09:04:48;;;;;;;8.25;3.92;;;;;;;;;;5020808;28;20276;-65
2023/12/19 09:07:13;;;;;;;6.27;4.00;;;;;;;;;;5010788;28;20045;-66
2023/12/19 09:09:38;;;;;;;8.00;4.00;;;;;;;;;;5014478;28;20322;-65
2023/12/19 09:12:04;;;;;;;8.25;4.30;;;;;;;;;;4991729;28;20970;-65
2023/12/19 09:14:29;;;;;;;10.30;3.97;;;;;;;;;;5013910;28;20105;-65
2023/12/19 09:16:54;;;;;;;6.53;3.88;;;;;;;;;;5013531;28;20153;-65
2023/12/19 09:19:19;;;;;;;6.97;4.18;;;;;;;;;;5013379;28;20022;-65
2023/12/19 09:21:45;;;;;;;6.03;3.60;;;;;;;;;;5009716;28;20530;-65
2023/12/19 09:24:10;;;;;;;6.80;4.30;;;;;;;;;;5011880;28;20033;-65
2023/12/19 09:26:39;;;;;;;7.57;4.32;;;;;;;;;;4993000;28;20121;-65
2023/12/19 09:29:07;;;;;;;6.35;3.65;;;;;;;;;;5013968;28;20439;-65
2023/12/19 09:31:32;;;;;;;8.32;4.57;;;;;;;;;;5011557;28;20057;-65
2023/12/19 09:33:58;;;;;;;6.97;3.73;;;;;;;;;;5008876;28;20057;-65
2023/12/19 09:36:26;;;;;;;6.63;4.18;;;;;;;;;;5013143;28;20383;-66
2023/12/19 09:38:52;;;;;;;7.32;4.68;;;;;;;;;;5005114;28;20030;-65
2023/12/19 09:41:17;;;;;;;6.82;4.40;;;;;;;;;;5009547;28;20040;-65
2023/12/19 09:43:42;;;;;;;6.95;4.90;;;;;;;;;;5012127;28;20538;-65
2023/12/19 09:46:09;;;;;;;8.48;4.38;;;;;;;;;;5014787;28;20427;-65
2023/12/19 09:48:35;;;;;;;9.02;4.78;;;;;;;;;;5016709;28;20022;-65
2023/12/19 09:51:01;;;;;;;7.93;4.57;;;;;;;;;;5018130;28;20033;-65
2023/12/19 09:53:28;;;;;;;10.10;4.70;;;;;;;;;;5013447;28;20057;-65
2023/12/19 09:55:53;;;;;;;10.00;5.32;;;;;;;;;;5019094;28;20049;-65
2023/12/19 09:58:19;;;;;;;12.25;5.60;;;;;;;;;;5010815;28;20462;-65
2023/12/19 10:00:44;;;;;;;7.88;4.72;;;;;;;;;;5011217;28;20018;-66
2023/12/19 10:03:10;;;;;;;8.48;5.50;;;;;;;;;;5015932;28;20042;-65
2023/12/19 10:05:35;;;;;;;7.88;5.13;;;;;;;;;;5010790;28;20026;-65
2023/12/19 10:08:00;;;;;;;11.53;4.87;;;;;;;;;;5017261;28;20486;-65
2023/12/19 10:10:45;;;;;;;8.88;4.97;;;;;;;;;;5018041;28;20912;-66
2023/12/19 10:13:10;;;;;;;11.45;5.00;;;;;;;;;;5022725;28;20030;-65
2023/12/19 10:15:35;;;;;;;8.05;4.82;;;;;;;;;;5019564;28;20037;-65
2023/12/19 10:18:07;;;;;;;8.07;4.80;;;;;;;;;;5012346;28;20026;-65
2023/12/19 10:20:33;;;;;;;9.13;5.72;;;;;;;;;;5000840;28;20026;-66
2023/12/19 10:23:02;;;;;;;9.48;4.78;;;;;;;;;;5019840;28;20034;-65
2023/12/19 10:25:27;;;;;;;9.95;4.95;;;;;;;;;;4997061;28;20049;-66
2023/12/19 10:28:07;;;;;;;9.15;5.68;;;;;;;;;;4986186;28;20156;-66
2023/12/19 10:30:32;;;;;;;11.07;5.75;;;;;;;;;;5014215;28;20032;-66
2023/12/19 10:32:58;;;;;;;9.82;5.35;;;;;;;;;;4990979;28;20034;-65
2023/12/19 10:35:23;;;;;;;9.55;5.50;;;;;;;;;;5003032;28;20038;-66
2023/12/19 10:37:48;;;;;;;14.38;6.13;;;;;;;;;;5003590;28;20037;-65
2023/12/19 10:40:19;;;;;;;12.55;6.35;;;;;;;;;;5004221;28;20018;-66
2023/12/19 10:42:53;;;;;;;13.77;6.88;;;;;;;;;;4997229;28;20084;-66
2023/12/19 10:45:19;;;;;;;9.00;5.70;;;;;;;;;;4985956;28;20092;-66
2023/12/19 10:47:44;;;;;;;11.07;6.38;;;;;;;;;;4977762;28;20033;-66
2023/12/19 10:50:09;;;;;;;10.30;6.03;;;;;;;;;;5007188;28;20029;-65
2023/12/19 10:52:36;;;;;;;10.03;5.97;;;;;;;;;;4992371;28;20028;-65
2023/12/19 10:55:08;;;;;;;10.80;5.72;;;;;;;;;;5009443;28;20291;-66
2023/12/19 10:57:36;;;;;;;10.93;6.30;;;;;;;;;;5009549;28;20033;-66
2023/12/19 11:00:09;;;;;;;9.70;6.10;;;;;;;;;;5001020;28;20108;-66
2023/12/19 11:02:38;;;;;;;13.83;6.20;;;;;;;;;;5002863;28;20880;-66
2023/12/19 11:05:06;;;;;;;11.75;7.03;;;;;;;;;;5014999;28;20029;-66
2023/12/19 11:07:32;;;;;;;12.23;6.85;;;;;;;;;;5007578;28;20123;-66
2023/12/19 11:10:05;;;;;;;9.63;6.35;;;;;;;;;;5000616;28;20021;-65
2023/12/19 11:12:31;;;;;;;12.32;6.13;;;;;;;;;;5002012;28;20038;-66
2023/12/19 11:14:56;;;;;;;10.75;6.47;;;;;;;;;;5005584;28;20475;-65
2023/12/19 11:17:26;;;;;;;12.17;5.73;;;;;;;;;;5016568;28;21018;-65
2023/12/19 11:19:55;;;;;;;10.40;6.57;;;;;;;;;;5012770;28;20647;-64
2023/12/19 11:22:36;;;;;;;11.98;6.93;;;;;;;;;;5014250;28;20552;-65
2023/12/19 11:25:07;;;;;;;10.02;6.38;;;;;;;;;;5010501;28;20090;-65
2023/12/19 11:27:40;;;;;;;13.38;6.80;;;;;;;;;;4992143;28;20030;-69
2023/12/19 11:30:06;;;;;;;11.98;7.53;;;;;;;;;;4994268;28;20083;-67
2023/12/19 11:32:33;;;;;;;12.20;7.40;;;;;;;;;;5007263;28;20037;-68
2023/12/19 11:35:08;;;;;;;9.95;6.60;;;;;;;;;;5017100;28;20022;-66
2023/12/19 11:37:33;;;;;;;11.80;6.68;;;;;;;;;;5002628;28;20157;-66
2023/12/19 11:39:58;;;;;;;12.35;7.63;;;;;;;;;;5010203;28;20116;-66
2023/12/19 11:42:38;;;;;;;11.90;7.20;;;;;;;;;;5008737;28;20138;-65
2023/12/19 11:45:19;;;;;;;10.68;6.80;;;;;;;;;;4999529;28;20873;-67
2023/12/19 11:47:45;;;;;;;10.68;6.57;;;;;;;;;;5019308;28;20554;-67
2023/12/19 11:50:11;;;;;;;13.02;7.07;;;;;;;;;;5019978;28;20052;-67
2023/12/19 11:52:37;;;;;;;12.98;7.15;;;;;;;;;;5006591;28;20018;-66
2023/12/19 11:55:03;;;;;;;13.90;6.40;;;;;;;;;;5009356;28;20459;-65
2023/12/19 11:57:28;;;;;;;13.25;6.97;;;;;;;;;;5013507;28;20079;-65
2023/12/19 11:59:54;;;;;;;13.38;7.05;;;;;;;;;;5011549;28;20030;-66
2023/12/19 12:02:27;;;;;;;11.30;7.15;;;;;;;;;;5014097;28;20044;-66
2023/12/19 12:05:15;;;;;;;15.27;6.97;;;;;;;;;;5007551;28;20084;-66
2023/12/19 12:07:42;;;;;;;11.60;7.60;;;;;;;;;;5009015;28;20113;-66
2023/12/19 12:10:09;;;;;;;11.55;6.50;;;;;;;;;;5011834;28;20037;-66
2023/12/19 12:12:35;;;;;;;13.75;7.55;;;;;;;;;;5016093;28;20021;-64
2023/12/19 12:15:07;;;;;;;11.80;6.25;;;;;;;;;;5013088;28;20053;-64
2023/12/19 12:17:34;;;;;;;13.60;7.28;;;;;;;;;;5023921;28;20026;-63
2023/12/19 12:19:59;;;;;;;11.80;7.10;;;;;;;;;;5013188;28;20030;-64
2023/12/19 12:22:25;;;;;;;12.40;6.78;;;;;;;;;;5021559;28;21604;-63
2023/12/19 12:24:53;;;;;;;13.95;7.15;;;;;;;;;;5021556;28;20443;-66
2023/12/19 12:27:19;;;;;;;14.02;7.57;;;;;;;;;;5022969;28;20022;-66
2023/12/19 12:29:45;;;;;;;14.82;8.23;;;;;;;;;;5022827;28;20491;-66
2023/12/19 12:32:10;;;;;;;12.63;7.28;;;;;;;;;;5023930;28;20037;-65
2023/12/19 12:34:36;;;;;;;19.88;7.63;;;;;;;;;;5022686;28;20130;-65
2023/12/19 12:37:01;;;;;;;13.63;6.80;;;;;;;;;;5018221;28;20022;-65
2023/12/19 12:39:26;;;;;;;11.93;6.97;;;;;;;;;;5023050;28;20029;-65
2023/12/19 12:41:59;;;;;;;16.75;7.68;;;;;;;;;;5023937;28;20040;-65
2023/12/19 12:44:25;;;;;;;10.80;7.22;;;;;;;;;;5022733;28;20038;-66
2023/12/19 12:46:51;;;;;;;13.50;7.30;;;;;;;;;;5017809;28;20464;-66
2023/12/19 12:49:17;;;;;;;12.63;6.78;;;;;;;;;;5013159;28;20045;-66
2023/12/19 12:51:43;;;;;;;13.77;7.95;;;;;;;;;;5016122;28;20056;-66
2023/12/19 12:54:08;;;;;;;10.35;6.07;;;;;;;;;;5016189;28;20021;-69
2023/12/19 12:56:34;;;;;;;11.95;6.68;;;;;;;;;;5017502;28;20033;-67
2023/12/19 12:59:12;;;;;;;10.20;6.25;;;;;;;;;;5011509;28;20041;-67
2023/12/19 13:01:38;;;;;;;12.65;6.78;;;;;;;;;;5012468;28;20088;-64
2023/12/19 13:04:04;;;;;;;14.23;6.90;;;;;;;;;;5006986;28;20108;-65
2023/12/19 13:06:29;;;;;;;9.38;6.32;;;;;;;;;;5023216;28;20049;-66
2023/12/19 13:08:54;;;;;;;12.55;6.95;;;;;;;;;;5012428;28;20114;-63
2023/12/19 13:11:22;;;;;;;11.38;6.47;;;;;;;;;;5014360;28;20044;-63
2023/12/19 13:13:48;;;;;;;15.43;7.40;;;;;;;;;;5016088;28;20096;-64
2023/12/19 13:16:13;;;;;;;11.07;6.85;;;;;;;;;;5015181;28;20109;-65
2023/12/19 13:18:38;;;;;;;10.85;6.45;;;;;;;;;;5012438;28;20522;-62
2023/12/19 13:21:04;;;;;;;12.80;7.30;;;;;;;;;;5010683;28;20022;-63
2023/12/19 13:23:29;;;;;;;10.25;6.65;;;;;;;;;;5026262;28;20034;-71
2023/12/19 13:25:56;;;;;;;10.48;6.60;;;;;;;;;;4999414;28;20894;-66
2023/12/19 13:28:22;;;;;;;14.25;6.45;;;;;;;;;;4993645;28;20057;-66
2023/12/19 13:30:48;;;;;;;9.27;5.97;;;;;;;;;;5013748;28;20115;-66
2023/12/19 13:33:14;;;;;;;10.27;6.35;;;;;;;;;;5010412;28;20111;-66
2023/12/19 13:35:39;;;;;;;10.48;6.40;;;;;;;;;;5011853;28;20104;-67
2023/12/19 13:38:04;;;;;;;12.23;6.50;;;;;;;;;;5006971;28;20037;-66
2023/12/19 13:40:30;;;;;;;10.73;6.25;;;;;;;;;;5018606;28;20102;-66
2023/12/19 13:42:58;;;;;;;11.07;7.30;;;;;;;;;;4998975;28;20102;-66
2023/12/19 13:45:25;;;;;;;9.52;6.70;;;;;;;;;;4973029;28;20050;-67
2023/12/19 13:47:51;;;;;;;11.98;6.32;;;;;;;;;;4996448;28;20057;-65
2023/12/19 13:50:16;;;;;;;11.70;6.53;;;;;;;;;;4997131;28;20136;-64
2023/12/19 13:52:42;;;;;;;10.35;6.30;;;;;;;;;;4982354;28;20038;-66
2023/12/19 13:55:08;;;;;;;11.18;5.72;;;;;;;;;;4989118;28;20025;-65
2023/12/19 13:57:34;;;;;;;10.23;6.32;;;;;;;;;;4978141;28;20892;-66
2023/12/19 13:59:59;;;;;;;12.98;6.53;;;;;;;;;;4993154;28;20064;-67
2023/12/19 14:02:24;;;;;;;12.50;6.20;;;;;;;;;;4999334;28;20052;-65
2023/12/19 14:04:49;;;;;;;10.10;6.60;;;;;;;;;;4989934;28;20037;-65
2023/12/19 14:07:18;;;;;;;9.60;5.43;;;;;;;;;;4998740;28;20885;-65
2023/12/19 14:09:43;;;;;;;10.25;6.47;;;;;;;;;;5004278;28;20025;-66
2023/12/19 14:12:09;;;;;;;11.75;6.85;;;;;;;;;;5004930;28;20029;-65
2023/12/19 14:14:34;;;;;;;14.45;6.80;;;;;;;;;;4994863;28;20148;-66
2023/12/19 14:17:00;;;;;;;13.70;7.03;;;;;;;;;;5009751;28;20061;-67
2023/12/19 14:19:25;;;;;;;10.45;5.78;;;;;;;;;;4995228;28;20439;-66
2023/12/19 14:21:51;;;;;;;12.55;6.65;;;;;;;;;;5000082;28;20402;-67